createdAt,value
2023-03-05T00:01:06.822Z,4.00
2023-03-05T00:03:33.454Z,4.06
2023-03-05T00:06:00.767Z,4.00
2023-03-05T00:08:28.463Z,4.00
2023-03-05T00:11:00.783Z,4.00
2023-03-05T00:13:27.447Z,4.00
2023-03-05T00:15:54.517Z,4.00
2023-03-05T00:18:22.609Z,4.00
2023-03-05T00:20:49.283Z,3.94
2023-03-05T00:23:15.885Z,3.94
2023-03-05T00:25:43.564Z,3.94
2023-03-05T00:28:10.912Z,3.94
2023-03-05T00:30:37.519Z,3.94
2023-03-05T00:33:04.232Z,3.88
2023-03-05T00:35:30.918Z,3.81
2023-03-05T00:37:58.133Z,3.81
2023-03-05T00:40:24.725Z,3.75
2023-03-05T00:42:51.385Z,3.69
2023-03-05T00:45:18.021Z,3.63
2023-03-05T00:47:44.622Z,3.56
2023-03-05T00:50:11.565Z,3.56
2023-03-05T00:52:38.342Z,3.56
2023-03-05T00:55:05.720Z,3.44
2023-03-05T00:57:32.256Z,3.44
2023-03-05T00:59:58.877Z,3.44
2023-03-05T01:02:26.046Z,3.50
2023-03-05T01:04:52.686Z,3.44
2023-03-05T01:07:19.276Z,3.44
2023-03-05T01:09:45.848Z,3.38
2023-03-05T01:12:12.450Z,3.38
2023-03-05T01:14:39.072Z,3.44
2023-03-05T01:17:05.924Z,3.38
2023-03-05T01:19:32.521Z,3.44
2023-03-05T01:21:59.414Z,3.44
2023-03-05T01:24:26.037Z,3.44
2023-03-05T01:26:52.608Z,3.44
2023-03-05T01:29:19.241Z,3.44
2023-03-05T01:31:46.457Z,3.50
2023-03-05T01:34:13.695Z,3.50
2023-03-05T01:36:44.181Z,3.44
2023-03-05T01:39:10.742Z,3.44
2023-03-05T01:41:37.310Z,3.44
2023-03-05T01:44:03.977Z,3.38
2023-03-05T01:46:39.916Z,3.38
2023-03-05T01:49:26.771Z,3.38
2023-03-05T01:52:17.626Z,3.31
2023-03-05T01:54:50.482Z,3.31
2023-03-05T01:57:22.594Z,3.25
2023-03-05T01:59:56.253Z,3.31
2023-03-05T02:02:23.044Z,3.31
2023-03-05T02:05:01.422Z,3.38
2023-03-05T02:07:29.050Z,3.38
2023-03-05T02:09:55.616Z,3.38
2023-03-05T02:12:22.598Z,3.38
2023-03-05T02:14:58.489Z,3.38
2023-03-05T02:17:27.800Z,3.44
2023-03-05T02:20:02.179Z,3.38
2023-03-05T02:22:28.772Z,3.44
2023-03-05T02:24:55.366Z,3.44
2023-03-05T02:27:34.729Z,3.38
2023-03-05T02:30:02.504Z,3.31
2023-03-05T02:32:29.162Z,3.31
2023-03-05T02:34:55.852Z,3.31
2023-03-05T02:37:22.464Z,3.31
2023-03-05T02:39:49.673Z,3.31
2023-03-05T02:42:16.275Z,3.31
2023-03-05T02:44:43.009Z,3.31
2023-03-05T02:47:09.610Z,3.31
2023-03-05T02:49:36.263Z,3.31
2023-03-05T02:52:03.008Z,3.25
2023-03-05T02:54:29.589Z,3.31
2023-03-05T02:56:56.155Z,3.31
2023-03-05T02:59:22.726Z,3.38
2023-03-05T03:01:49.323Z,3.31
2023-03-05T03:04:15.863Z,3.31
2023-03-05T03:06:42.433Z,3.31
2023-03-05T03:09:09.048Z,3.38
2023-03-05T03:11:35.679Z,3.31
2023-03-05T03:14:02.249Z,3.38
2023-03-05T03:16:29.127Z,3.38
2023-03-05T03:18:55.715Z,3.31
2023-03-05T03:21:25.531Z,3.38
2023-03-05T03:23:52.286Z,3.31
2023-03-05T03:26:19.941Z,3.31
2023-03-05T03:28:46.547Z,3.31
2023-03-05T03:31:13.169Z,3.31
2023-03-05T03:33:39.950Z,3.25
2023-03-05T03:36:07.178Z,3.19
2023-03-05T03:38:33.779Z,3.19
2023-03-05T03:41:00.417Z,3.19
2023-03-05T03:43:27.138Z,3.19
2023-03-05T03:45:53.722Z,3.25
2023-03-05T03:48:20.349Z,3.25
2023-03-05T03:50:46.997Z,3.25
2023-03-05T03:53:14.331Z,3.25
2023-03-05T03:55:47.819Z,3.25
2023-03-05T03:58:14.532Z,3.31
2023-03-05T04:00:41.622Z,3.31
2023-03-05T04:03:09.288Z,3.25
2023-03-05T04:05:35.971Z,3.25
2023-03-05T04:08:03.498Z,3.31
2023-03-05T04:10:30.329Z,3.31
2023-03-05T04:12:57.000Z,3.31
2023-03-05T04:15:23.594Z,3.25
2023-03-05T04:17:50.191Z,3.25
2023-03-05T04:20:17.109Z,3.25
2023-03-05T04:22:43.698Z,3.25
2023-03-05T04:25:10.547Z,3.19
2023-03-05T04:27:37.930Z,3.19
2023-03-05T04:30:05.030Z,3.19
2023-03-05T04:32:31.706Z,3.19
2023-03-05T04:34:59.092Z,3.19
2023-03-05T04:37:26.857Z,3.19
2023-03-05T04:39:53.612Z,3.13
2023-03-05T04:42:21.153Z,3.13
2023-03-05T04:44:49.437Z,3.13
2023-03-05T04:47:16.888Z,3.19
2023-03-05T04:49:43.677Z,3.13
2023-03-05T04:52:12.081Z,3.13
2023-03-05T04:54:38.690Z,3.13
2023-03-05T04:57:05.956Z,3.06
2023-03-05T04:59:32.617Z,3.06
2023-03-05T05:01:59.593Z,3.06
2023-03-05T05:04:26.332Z,3.06
2023-03-05T05:06:56.191Z,3.06
2023-03-05T05:09:23.386Z,3.06
2023-03-05T05:11:50.020Z,3.06
2023-03-05T05:14:17.244Z,3.06
2023-03-05T05:16:43.902Z,3.06
2023-03-05T05:19:10.812Z,3.06
2023-03-05T05:21:37.515Z,3.06
2023-03-05T05:24:04.477Z,3.00
2023-03-05T05:26:31.098Z,2.94
2023-03-05T05:28:57.678Z,2.94
2023-03-05T05:31:24.256Z,2.88
2023-03-05T05:33:50.889Z,2.88
2023-03-05T05:36:19.289Z,2.88
2023-03-05T05:38:46.012Z,2.81
2023-03-05T05:41:14.832Z,2.88
2023-03-05T05:43:41.589Z,2.81
2023-03-05T05:46:13.125Z,2.75
2023-03-05T05:48:40.083Z,2.75
2023-03-05T05:51:09.186Z,2.75
2023-03-05T05:53:36.639Z,2.88
2023-03-05T05:56:07.643Z,2.88
2023-03-05T05:58:34.398Z,2.88
2023-03-05T06:01:01.487Z,2.94
2023-03-05T06:03:28.383Z,2.94
2023-03-05T06:05:55.696Z,3.00
2023-03-05T06:08:22.362Z,2.94
2023-03-05T06:10:55.274Z,2.94
2023-03-05T06:13:21.983Z,2.94
2023-03-05T06:16:05.336Z,3.00
2023-03-05T06:18:32.893Z,3.00
2023-03-05T06:21:06.201Z,3.06
2023-03-05T06:23:34.259Z,3.06
2023-03-05T06:26:03.302Z,3.06
2023-03-05T06:28:31.168Z,3.00
2023-03-05T06:31:10.674Z,3.06
2023-03-05T06:33:38.675Z,3.06
2023-03-05T06:36:14.634Z,3.06
2023-03-05T06:38:41.339Z,3.06
2023-03-05T06:41:11.703Z,3.06
2023-03-05T06:43:41.688Z,3.00
2023-03-05T06:46:13.470Z,3.00
2023-03-05T06:48:40.492Z,2.94
2023-03-05T06:51:16.796Z,2.94
2023-03-05T06:53:44.926Z,2.94
2023-03-05T06:56:13.966Z,2.94
2023-03-05T06:58:41.120Z,2.94
2023-03-05T07:01:07.973Z,2.94
2023-03-05T07:03:36.142Z,2.94
2023-03-05T07:06:04.687Z,3.00
2023-03-05T07:08:32.150Z,3.00
2023-03-05T07:10:58.820Z,3.06
2023-03-05T07:13:25.815Z,3.06
2023-03-05T07:15:52.661Z,3.13
2023-03-05T07:18:19.336Z,3.13
2023-03-05T07:20:45.933Z,3.19
2023-03-05T07:23:12.790Z,3.19
2023-03-05T07:25:39.932Z,3.25
2023-03-05T07:28:07.111Z,3.31
2023-03-05T07:30:34.484Z,3.38
2023-03-05T07:33:02.045Z,3.44
2023-03-05T07:35:28.734Z,3.56
2023-03-05T07:37:55.922Z,3.56
2023-03-05T07:40:22.617Z,3.69
2023-03-05T07:42:49.204Z,3.69
2023-03-05T07:45:15.903Z,3.75
2023-03-05T07:47:42.475Z,3.75
2023-03-05T07:50:09.631Z,3.88
2023-03-05T07:52:36.258Z,3.94
2023-03-05T07:55:02.934Z,4.00
2023-03-05T07:57:29.572Z,4.13
2023-03-05T07:59:56.329Z,4.25
2023-03-05T08:02:23.047Z,4.31
2023-03-05T08:04:49.704Z,4.31
2023-03-05T08:07:17.309Z,4.44
2023-03-05T08:09:44.191Z,4.44
2023-03-05T08:12:10.792Z,4.38
2023-03-05T08:14:38.084Z,4.50
2023-03-05T08:17:05.824Z,4.50
2023-03-05T08:19:33.278Z,4.44
2023-03-05T08:22:00.216Z,4.50
2023-03-05T08:24:29.688Z,4.56
2023-03-05T08:26:58.259Z,4.56
2023-03-05T08:29:27.714Z,4.69
2023-03-05T08:31:55.083Z,4.75
2023-03-05T08:34:21.729Z,4.88
2023-03-05T08:36:49.077Z,4.94
2023-03-05T08:39:15.983Z,4.94
2023-03-05T08:41:42.779Z,5.06
2023-03-05T08:44:09.400Z,5.13
2023-03-05T08:46:37.114Z,5.13
2023-03-05T08:49:04.490Z,5.00
2023-03-05T08:51:31.131Z,5.00
2023-03-05T08:53:58.725Z,5.06
2023-03-05T08:56:27.531Z,5.13
2023-03-05T08:58:54.583Z,5.25
2023-03-05T09:01:22.517Z,5.31
2023-03-05T09:03:49.441Z,5.25
2023-03-05T09:06:16.177Z,5.56
2023-03-05T09:08:42.819Z,5.50
2023-03-05T09:11:13.709Z,5.63
2023-03-05T09:13:40.625Z,5.56
2023-03-05T09:16:15.900Z,5.75
2023-03-05T09:18:42.850Z,5.75
2023-03-05T09:21:13.288Z,5.75
2023-03-05T09:23:40.236Z,5.81
2023-03-05T09:26:09.172Z,5.81
2023-03-05T09:28:36.038Z,5.63
2023-03-05T09:31:06.428Z,5.56
2023-03-05T09:33:33.507Z,5.44
2023-03-05T09:36:00.715Z,5.44
2023-03-05T09:38:28.426Z,5.56
2023-03-05T09:41:25.137Z,5.56
2023-03-05T09:44:10.350Z,5.69
2023-03-05T09:46:54.717Z,5.88
2023-03-05T09:49:49.747Z,6.00
2023-03-05T09:52:46.901Z,6.06
2023-03-05T09:55:40.909Z,6.06
2023-03-05T09:58:17.564Z,6.19
2023-03-05T10:00:49.235Z,6.19
2023-03-05T10:03:35.560Z,6.19
2023-03-05T10:06:05.671Z,6.25
2023-03-05T10:08:48.968Z,6.13
2023-03-05T10:11:28.586Z,6.06
2023-03-05T10:13:55.333Z,6.38
2023-03-05T10:16:47.641Z,6.25
2023-03-05T10:19:48.146Z,6.44
2023-03-05T10:22:22.367Z,6.50
2023-03-05T10:25:00.631Z,6.56
2023-03-05T10:27:27.195Z,6.63
2023-03-05T10:30:28.437Z,6.69
2023-03-05T10:33:12.980Z,6.56
2023-03-05T10:35:55.872Z,6.81
2023-03-05T10:39:00.374Z,6.63
2023-03-05T10:41:35.926Z,6.50
2023-03-05T10:44:15.730Z,6.38
2023-03-05T10:46:42.950Z,6.44
2023-03-05T10:49:22.660Z,6.69
2023-03-05T10:52:13.348Z,6.69
2023-03-05T10:54:42.891Z,6.56
2023-03-05T10:57:12.124Z,6.63
2023-03-05T10:59:46.573Z,7.00
2023-03-05T11:02:13.743Z,7.00
2023-03-05T11:04:40.883Z,7.19
2023-03-05T11:07:31.855Z,7.38
2023-03-05T11:10:02.949Z,7.38
2023-03-05T11:12:35.015Z,7.31
2023-03-05T11:15:06.719Z,7.50
2023-03-05T11:17:35.215Z,6.88
2023-03-05T11:20:31.814Z,7.00
2023-03-05T11:23:14.967Z,7.19
2023-03-05T11:26:03.446Z,7.44
2023-03-05T11:28:36.764Z,7.50
2023-03-05T11:31:15.400Z,7.63
2023-03-05T11:33:55.306Z,7.69
2023-03-05T11:36:30.072Z,7.88
2023-03-05T11:39:11.851Z,8.00
2023-03-05T11:41:47.741Z,7.94
2023-03-05T11:44:23.244Z,8.00
2023-03-05T11:46:56.170Z,8.19
2023-03-05T11:49:28.465Z,8.19
2023-03-05T11:52:11.412Z,8.06
2023-03-05T11:55:07.617Z,8.00
2023-03-05T11:57:52.529Z,7.75
2023-03-05T12:00:29.165Z,7.69
2023-03-05T12:02:58.482Z,7.63
2023-03-05T12:05:28.863Z,7.63
2023-03-05T12:08:01.013Z,8.06
2023-03-05T12:10:27.900Z,8.31
2023-03-05T12:13:03.456Z,7.94
2023-03-05T12:15:46.463Z,8.19
2023-03-05T12:18:25.239Z,8.13
2023-03-05T12:21:28.977Z,8.31
2023-03-05T12:23:59.153Z,8.13
2023-03-05T12:26:54.289Z,7.94
2023-03-05T12:29:43.293Z,7.94
2023-03-05T12:32:28.938Z,8.00
2023-03-05T12:35:06.346Z,8.00
2023-03-05T12:37:32.863Z,8.06
2023-03-05T12:40:00.837Z,7.88
2023-03-05T12:42:30.552Z,8.00
2023-03-05T12:45:41.356Z,7.94
2023-03-05T12:48:12.473Z,7.56
2023-03-05T12:50:39.044Z,7.75
2023-03-05T12:53:18.798Z,7.69
2023-03-05T12:55:47.986Z,7.88
2023-03-05T12:58:39.420Z,8.06
2023-03-05T13:01:11.974Z,8.25
2023-03-05T13:03:54.652Z,8.19
2023-03-05T13:06:35.475Z,8.13
2023-03-05T13:09:04.551Z,8.19
2023-03-05T13:11:36.414Z,8.19
2023-03-05T13:14:03.907Z,8.38
2023-03-05T13:16:38.750Z,8.38
2023-03-05T13:19:17.367Z,8.38
2023-03-05T13:21:44.167Z,8.75
2023-03-05T13:24:19.480Z,8.69
2023-03-05T13:26:46.134Z,8.81
2023-03-05T13:29:14.567Z,8.69
2023-03-05T13:31:54.530Z,8.69
2023-03-05T13:34:46.166Z,8.56
2023-03-05T13:37:20.176Z,8.75
2023-03-05T13:39:56.294Z,8.56
2023-03-05T13:42:34.741Z,8.38
2023-03-05T13:45:05.883Z,8.44
2023-03-05T13:47:35.365Z,8.38
2023-03-05T13:50:06.904Z,8.44
2023-03-05T13:52:37.899Z,8.44
2023-03-05T13:55:16.866Z,8.63
2023-03-05T13:57:53.085Z,8.69
2023-03-05T14:00:26.105Z,8.81
2023-03-05T14:02:54.515Z,8.38
2023-03-05T14:05:21.692Z,8.25
2023-03-05T14:07:52.723Z,8.13
2023-03-05T14:10:25.108Z,8.00
2023-03-05T14:12:51.823Z,8.06
2023-03-05T14:15:27.737Z,8.06
2023-03-05T14:18:19.370Z,7.88
2023-03-05T14:21:10.662Z,7.94
2023-03-05T14:23:52.790Z,7.88
2023-03-05T14:26:39.943Z,7.81
2023-03-05T14:29:09.452Z,7.88
2023-03-05T14:31:49.733Z,8.06
2023-03-05T14:34:38.185Z,8.19
2023-03-05T14:37:16.765Z,8.06
2023-03-05T14:39:51.110Z,7.94
2023-03-05T14:42:32.639Z,7.69
2023-03-05T14:45:02.388Z,7.44
2023-03-05T14:47:29.044Z,7.00
2023-03-05T14:49:55.854Z,7.00
2023-03-05T14:52:25.718Z,7.06
2023-03-05T14:54:53.773Z,7.06
2023-03-05T14:57:25.152Z,6.94
2023-03-05T14:59:52.045Z,6.94
2023-03-05T15:02:22.128Z,6.81
2023-03-05T15:04:49.325Z,6.88
2023-03-05T15:07:42.980Z,6.94
2023-03-05T15:10:11.900Z,7.06
2023-03-05T15:12:38.499Z,7.13
2023-03-05T15:15:06.491Z,7.06
2023-03-05T15:17:37.038Z,7.00
2023-03-05T15:20:08.246Z,7.00
2023-03-05T15:22:34.886Z,7.00
2023-03-05T15:25:02.743Z,6.88
2023-03-05T15:27:29.399Z,6.88
2023-03-05T15:29:56.050Z,6.88
2023-03-05T15:32:22.620Z,7.00
2023-03-05T15:34:49.189Z,6.88
2023-03-05T15:37:15.759Z,6.88
2023-03-05T15:39:42.380Z,6.69
2023-03-05T15:42:08.982Z,6.75
2023-03-05T15:44:35.567Z,6.69
2023-03-05T15:47:02.204Z,6.69
2023-03-05T15:49:28.819Z,6.69
2023-03-05T15:51:56.896Z,6.69
2023-03-05T15:54:23.495Z,6.56
2023-03-05T15:56:50.244Z,6.63
2023-03-05T15:59:16.933Z,6.63
2023-03-05T16:01:49.488Z,6.56
2023-03-05T16:04:16.759Z,6.44
2023-03-05T16:06:49.463Z,6.44
2023-03-05T16:09:20.270Z,6.38
2023-03-05T16:11:49.213Z,6.25
2023-03-05T16:14:21.349Z,6.19
2023-03-05T16:16:48.654Z,6.19
2023-03-05T16:19:18.814Z,6.13
2023-03-05T16:21:46.266Z,6.06
2023-03-05T16:24:12.924Z,6.06
2023-03-05T16:26:41.639Z,6.00
2023-03-05T16:29:08.557Z,6.00
2023-03-05T16:31:38.253Z,5.88
2023-03-05T16:34:04.937Z,5.94
2023-03-05T16:36:35.264Z,5.88
2023-03-05T16:39:04.574Z,5.88
2023-03-05T16:41:32.245Z,5.81
2023-03-05T16:44:00.013Z,5.81
2023-03-05T16:46:28.889Z,5.81
2023-03-05T16:48:56.093Z,5.81
2023-03-05T16:51:23.309Z,5.75
2023-03-05T16:53:50.067Z,5.75
2023-03-05T16:56:17.020Z,5.69
2023-03-05T16:58:43.654Z,5.69
2023-03-05T17:01:12.917Z,5.69
2023-03-05T17:03:41.472Z,5.63
2023-03-05T17:06:13.130Z,5.63
2023-03-05T17:08:42.552Z,5.63
2023-03-05T17:11:10.648Z,5.56
2023-03-05T17:13:38.366Z,5.50
2023-03-05T17:16:06.184Z,5.50
2023-03-05T17:18:33.420Z,5.50
2023-03-05T17:21:01.961Z,5.44
2023-03-05T17:23:28.659Z,5.44
2023-03-05T17:25:55.452Z,5.44
2023-03-05T17:28:22.221Z,5.38
2023-03-05T17:30:49.104Z,5.31
2023-03-05T17:33:15.728Z,5.25
2023-03-05T17:35:48.547Z,5.25
2023-03-05T17:38:15.218Z,5.25
2023-03-05T17:40:41.838Z,5.19
2023-03-05T17:43:08.520Z,5.19
2023-03-05T17:45:36.045Z,5.19
2023-03-05T17:48:03.515Z,5.19
2023-03-05T17:50:30.795Z,5.19
2023-03-05T17:52:57.674Z,5.13
2023-03-05T17:55:25.661Z,5.13
2023-03-05T17:57:53.409Z,5.06
2023-03-05T18:00:23.818Z,5.06
2023-03-05T18:02:51.914Z,4.94
2023-03-05T18:05:21.503Z,4.94
2023-03-05T18:07:48.662Z,4.94
2023-03-05T18:10:16.721Z,4.88
2023-03-05T18:12:43.480Z,4.88
2023-03-05T18:15:13.219Z,4.88
2023-03-05T18:17:40.343Z,4.88
2023-03-05T18:20:08.345Z,4.81
2023-03-05T18:22:35.856Z,4.81
2023-03-05T18:25:02.537Z,4.81
2023-03-05T18:27:31.018Z,4.81
2023-03-05T18:29:57.695Z,4.75
2023-03-05T18:32:24.541Z,4.69
2023-03-05T18:34:51.311Z,4.63
2023-03-05T18:37:17.935Z,4.69
2023-03-05T18:39:44.492Z,4.69
2023-03-05T18:42:14.208Z,4.69
2023-03-05T18:44:41.675Z,4.69
2023-03-05T18:47:08.251Z,4.69
2023-03-05T18:49:34.845Z,4.56
2023-03-05T18:52:03.131Z,4.56
2023-03-05T18:54:29.770Z,4.56
2023-03-05T18:56:56.375Z,4.56
2023-03-05T18:59:23.075Z,4.56
2023-03-05T19:01:49.714Z,4.50
2023-03-05T19:04:16.384Z,4.50
2023-03-05T19:06:43.430Z,4.44
2023-03-05T19:09:19.347Z,4.50
2023-03-05T19:11:47.980Z,4.50
2023-03-05T19:14:14.583Z,4.44
2023-03-05T19:16:44.013Z,4.44
2023-03-05T19:19:22.573Z,4.50
2023-03-05T19:21:53.568Z,4.44
2023-03-05T19:24:22.474Z,4.38
2023-03-05T19:26:50.062Z,4.31
2023-03-05T19:29:16.756Z,4.31
2023-03-05T19:31:43.311Z,4.31
2023-03-05T19:34:10.184Z,4.25
2023-03-05T19:36:36.910Z,4.19
2023-03-05T19:39:08.088Z,4.19
2023-03-05T19:41:35.542Z,4.25
2023-03-05T19:44:02.700Z,4.31
2023-03-05T19:46:29.480Z,4.25
2023-03-05T19:48:56.398Z,4.19
2023-03-05T19:51:25.705Z,4.13
2023-03-05T19:53:53.145Z,4.13
2023-03-05T19:56:19.847Z,4.06
2023-03-05T19:58:48.857Z,4.06
2023-03-05T20:01:18.332Z,4.06
2023-03-05T20:03:47.030Z,4.06
2023-03-05T20:06:14.320Z,4.06
2023-03-05T20:08:41.531Z,4.00
2023-03-05T20:11:11.288Z,4.06
2023-03-05T20:13:38.472Z,4.00
2023-03-05T20:16:06.050Z,3.94
2023-03-05T20:18:32.789Z,3.94
2023-03-05T20:21:01.968Z,3.94
2023-03-05T20:23:29.398Z,3.94
2023-03-05T20:25:56.973Z,3.94
2023-03-05T20:28:26.087Z,3.88
2023-03-05T20:30:58.019Z,3.81
2023-03-05T20:33:25.898Z,3.88
2023-03-05T20:35:54.248Z,3.88
2023-03-05T20:38:25.030Z,3.81
2023-03-05T20:41:00.411Z,3.81
2023-03-05T20:43:30.248Z,3.75
2023-03-05T20:45:57.500Z,3.81
2023-03-05T20:48:26.102Z,3.75
2023-03-05T20:50:54.256Z,3.75
2023-03-05T20:53:21.430Z,3.81
2023-03-05T20:55:48.138Z,3.75
2023-03-05T20:58:15.076Z,3.75
2023-03-05T21:00:42.544Z,3.75
2023-03-05T21:03:09.531Z,3.75
2023-03-05T21:05:37.047Z,3.75
2023-03-05T21:08:04.942Z,3.69
2023-03-05T21:10:32.270Z,3.63
2023-03-05T21:13:00.754Z,3.63
2023-03-05T21:15:30.466Z,3.63
2023-03-05T21:17:58.634Z,3.63
2023-03-05T21:20:29.466Z,3.63
2023-03-05T21:22:57.247Z,3.63
2023-03-05T21:25:29.839Z,3.63
2023-03-05T21:28:02.407Z,3.56
2023-03-05T21:30:35.436Z,3.56
2023-03-05T21:33:07.639Z,3.56
2023-03-05T21:35:35.439Z,3.63
2023-03-05T21:38:03.783Z,3.56
2023-03-05T21:40:32.183Z,3.56
2023-03-05T21:42:59.153Z,3.50
2023-03-05T21:45:30.276Z,3.44
2023-03-05T21:47:58.718Z,3.44
2023-03-05T21:50:26.149Z,3.38
2023-03-05T21:52:53.392Z,3.38
2023-03-05T21:55:24.946Z,3.31
2023-03-05T21:57:51.582Z,3.25
2023-03-05T22:00:22.603Z,3.25
2023-03-05T22:02:49.704Z,3.25
2023-03-05T22:05:16.274Z,3.25
2023-03-05T22:07:43.648Z,3.13
2023-03-05T22:10:16.748Z,3.13
2023-03-05T22:13:11.716Z,3.06
2023-03-05T22:15:46.248Z,3.06
2023-03-05T22:18:15.124Z,3.00
2023-03-05T22:20:42.428Z,3.00
2023-03-05T22:23:09.463Z,2.94
2023-03-05T22:25:37.202Z,3.00
2023-03-05T22:28:04.254Z,3.00
2023-03-05T22:30:32.164Z,3.00
2023-03-05T22:33:02.473Z,2.94
2023-03-05T22:35:29.873Z,2.94
2023-03-05T22:37:57.499Z,2.94
2023-03-05T22:40:24.128Z,2.94
2023-03-05T22:42:50.773Z,2.94
2023-03-05T22:45:18.623Z,2.88
2023-03-05T22:47:50.068Z,2.81
2023-03-05T22:50:18.311Z,2.75
2023-03-05T22:52:45.037Z,2.75
2023-03-05T22:55:13.748Z,2.69
2023-03-05T22:57:41.013Z,2.69
2023-03-05T23:00:14.254Z,2.63
2023-03-05T23:02:42.153Z,2.56
2023-03-05T23:05:09.689Z,2.56
2023-03-05T23:07:38.506Z,2.50
2023-03-05T23:10:16.639Z,2.50
2023-03-05T23:12:46.425Z,2.44
2023-03-05T23:15:20.368Z,2.38
2023-03-05T23:17:47.668Z,2.44
2023-03-05T23:20:16.932Z,2.38
2023-03-05T23:22:45.130Z,2.38
2023-03-05T23:25:13.537Z,2.38
2023-03-05T23:27:40.805Z,2.38
2023-03-05T23:30:16.672Z,2.31
2023-03-05T23:32:54.048Z,2.31
2023-03-05T23:35:26.632Z,2.19
2023-03-05T23:37:55.062Z,2.13
2023-03-05T23:40:25.080Z,2.06
2023-03-05T23:42:52.289Z,2.06
2023-03-05T23:45:21.716Z,2.06
2023-03-05T23:47:48.814Z,2.00
2023-03-05T23:50:21.489Z,1.88
2023-03-05T23:52:49.260Z,1.88
2023-03-05T23:55:21.949Z,1.81
2023-03-05T23:57:49.109Z,1.81
